sensor_id;sensor_type;location;lat;lon;timestamp;pressure;altitude;pressure_sealevel;temperature;humidity
65997;BME280;52765;52.258;21.052;2023-03-05T00:01:18;100157.75;;;-1.78;53.65
65997;BME280;52765;52.258;21.052;2023-03-05T00:03:47;100167.53;;;-1.80;53.25
65997;BME280;52765;52.258;21.052;2023-03-05T00:06:14;100165.09;;;-1.83;53.73
65997;BME280;52765;52.258;21.052;2023-03-05T00:08:42;100161.72;;;-1.87;53.64
65997;BME280;52765;52.258;21.052;2023-03-05T00:11:11;100161.50;;;-1.82;53.65
65997;BME280;52765;52.258;21.052;2023-03-05T00:13:38;100154.44;;;-1.81;53.78
65997;BME280;52765;52.258;21.052;2023-03-05T00:16:08;100161.56;;;-1.83;53.39
65997;BME280;52765;52.258;21.052;2023-03-05T00:18:35;100157.16;;;-1.83;53.64
65997;BME280;52765;52.258;21.052;2023-03-05T00:21:02;100151.69;;;-1.80;53.15
65997;BME280;52765;52.258;21.052;2023-03-05T00:23:28;100149.41;;;-1.86;53.41
65997;BME280;52765;52.258;21.052;2023-03-05T00:25:55;100149.31;;;-1.84;53.32
65997;BME280;52765;52.258;21.052;2023-03-05T00:28:22;100146.75;;;-1.86;53.21
65997;BME280;52765;52.258;21.052;2023-03-05T00:30:49;100145.41;;;-1.77;53.12
65997;BME280;52765;52.258;21.052;2023-03-05T00:33:19;100143.97;;;-1.83;53.13
65997;BME280;52765;52.258;21.052;2023-03-05T00:35:45;100134.00;;;-1.78;53.14
65997;BME280;52765;52.258;21.052;2023-03-05T00:38:12;100126.22;;;-1.81;53.90
65997;BME280;52765;52.258;21.052;2023-03-05T00:40:40;100128.88;;;-1.81;54.06
65997;BME280;52765;52.258;21.052;2023-03-05T00:43:08;100129.88;;;-1.83;54.75
65997;BME280;52765;52.258;21.052;2023-03-05T00:45:34;100128.44;;;-1.89;54.92
65997;BME280;52765;52.258;21.052;2023-03-05T00:48:00;100137.13;;;-1.87;55.74
65997;BME280;52765;52.258;21.052;2023-03-05T00:50:26;100130.16;;;-1.88;55.42
65997;BME280;52765;52.258;21.052;2023-03-05T00:52:53;100114.97;;;-2.00;56.03
65997;BME280;52765;52.258;21.052;2023-03-05T00:55:19;100109.75;;;-2.02;55.97
65997;BME280;52765;52.258;21.052;2023-03-05T00:57:44;100123.91;;;-2.03;55.74
65997;BME280;52765;52.258;21.052;2023-03-05T01:00:11;100108.31;;;-2.08;55.83
65997;BME280;52765;52.258;21.052;2023-03-05T01:02:37;100116.75;;;-2.01;55.53
65997;BME280;52765;52.258;21.052;2023-03-05T01:05:03;100112.56;;;-2.05;56.49
65997;BME280;52765;52.258;21.052;2023-03-05T01:07:28;100106.34;;;-2.04;55.70
65997;BME280;52765;52.258;21.052;2023-03-05T01:09:54;100097.75;;;-2.08;56.13
65997;BME280;52765;52.258;21.052;2023-03-05T01:12:19;100090.59;;;-2.06;56.51
65997;BME280;52765;52.258;21.052;2023-03-05T01:14:45;100104.13;;;-2.12;56.04
65997;BME280;52765;52.258;21.052;2023-03-05T01:17:10;100098.84;;;-2.12;56.17
65997;BME280;52765;52.258;21.052;2023-03-05T01:19:36;100084.56;;;-2.08;56.90
65997;BME280;52765;52.258;21.052;2023-03-05T01:22:02;100087.97;;;-2.06;56.54
65997;BME280;52765;52.258;21.052;2023-03-05T01:24:30;100088.63;;;-2.02;56.87
65997;BME280;52765;52.258;21.052;2023-03-05T01:26:55;100088.56;;;-2.00;56.83
65997;BME280;52765;52.258;21.052;2023-03-05T01:29:21;100078.16;;;-2.03;57.24
65997;BME280;52765;52.258;21.052;2023-03-05T01:31:46;100074.00;;;-2.08;57.31
65997;BME280;52765;52.258;21.052;2023-03-05T01:34:12;100071.06;;;-2.19;57.86
65997;BME280;52765;52.258;21.052;2023-03-05T01:36:40;100080.44;;;-2.13;58.09
65997;BME280;52765;52.258;21.052;2023-03-05T01:39:06;100077.03;;;-2.15;59.28
65997;BME280;52765;52.258;21.052;2023-03-05T01:41:33;100066.72;;;-2.20;59.45
65997;BME280;52765;52.258;21.052;2023-03-05T01:44:00;100074.47;;;-2.17;58.95
65997;BME280;52765;52.258;21.052;2023-03-05T01:46:36;100084.13;;;-2.33;60.91
65997;BME280;52765;52.258;21.052;2023-03-05T01:49:07;100078.41;;;-2.42;61.28
65997;BME280;52765;52.258;21.052;2023-03-05T01:51:39;100074.00;;;-2.41;62.20
65997;BME280;52765;52.258;21.052;2023-03-05T01:54:08;100068.13;;;-2.46;62.30
65997;BME280;52765;52.258;21.052;2023-03-05T01:56:34;100064.31;;;-2.40;62.43
65997;BME280;52765;52.258;21.052;2023-03-05T01:59:01;100064.22;;;-2.39;62.05
65997;BME280;52765;52.258;21.052;2023-03-05T02:01:36;100048.63;;;-2.44;63.34
65997;BME280;52765;52.258;21.052;2023-03-05T02:04:03;100056.56;;;-2.44;63.81
65997;BME280;52765;52.258;21.052;2023-03-05T02:06:29;100051.50;;;-2.48;63.61
65997;BME280;52765;52.258;21.052;2023-03-05T02:08:55;100048.19;;;-2.52;64.01
65997;BME280;52765;52.258;21.052;2023-03-05T02:11:20;100050.91;;;-2.53;64.59
65997;BME280;52765;52.258;21.052;2023-03-05T02:13:46;100059.09;;;-2.58;64.54
65997;BME280;52765;52.258;21.052;2023-03-05T02:16:11;100053.81;;;-2.58;64.24
65997;BME280;52765;52.258;21.052;2023-03-05T02:18:37;100057.75;;;-2.49;64.44
65997;BME280;52765;52.258;21.052;2023-03-05T02:21:06;100053.47;;;-2.52;64.52
65997;BME280;52765;52.258;21.052;2023-03-05T02:23:34;100059.09;;;-2.42;64.27
65997;BME280;52765;52.258;21.052;2023-03-05T02:26:05;100057.50;;;-2.45;64.29
65997;BME280;52765;52.258;21.052;2023-03-05T02:28:37;100043.00;;;-2.53;65.12
65997;BME280;52765;52.258;21.052;2023-03-05T02:31:13;100040.63;;;-2.58;65.00
65997;BME280;52765;52.258;21.052;2023-03-05T02:33:39;100039.81;;;-2.60;65.34
65997;BME280;52765;52.258;21.052;2023-03-05T02:36:06;100036.41;;;-2.62;66.17
65997;BME280;52765;52.258;21.052;2023-03-05T02:38:32;100034.47;;;-2.58;65.70
65997;BME280;52765;52.258;21.052;2023-03-05T02:40:57;100038.75;;;-2.56;66.01
65997;BME280;52765;52.258;21.052;2023-03-05T02:43:23;100036.09;;;-2.56;65.82
65997;BME280;52765;52.258;21.052;2023-03-05T02:45:48;100033.16;;;-2.50;65.95
65997;BME280;52765;52.258;21.052;2023-03-05T02:48:14;100034.91;;;-2.50;65.56
65997;BME280;52765;52.258;21.052;2023-03-05T02:50:40;100021.66;;;-2.49;66.10
65997;BME280;52765;52.258;21.052;2023-03-05T02:53:06;100029.81;;;-2.53;66.93
65997;BME280;52765;52.258;21.052;2023-03-05T02:55:31;100025.88;;;-2.62;67.16
65997;BME280;52765;52.258;21.052;2023-03-05T02:57:57;100029.28;;;-2.60;67.71
65997;BME280;52765;52.258;21.052;2023-03-05T03:00:23;100024.06;;;-2.62;67.96
65997;BME280;52765;52.258;21.052;2023-03-05T03:02:48;100030.06;;;-2.58;68.07
65997;BME280;52765;52.258;21.052;2023-03-05T03:05:14;100026.41;;;-2.55;68.36
65997;BME280;52765;52.258;21.052;2023-03-05T03:07:39;100029.28;;;-2.60;68.37
65997;BME280;52765;52.258;21.052;2023-03-05T03:10:05;100027.06;;;-2.68;68.80
65997;BME280;52765;52.258;21.052;2023-03-05T03:12:36;100025.41;;;-2.70;69.24
65997;BME280;52765;52.258;21.052;2023-03-05T03:15:04;100026.09;;;-2.67;68.90
65997;BME280;52765;52.258;21.052;2023-03-05T03:17:34;100020.59;;;-2.62;67.38
65997;BME280;52765;52.258;21.052;2023-03-05T03:20:01;100016.00;;;-2.58;67.12
65997;BME280;52765;52.258;21.052;2023-03-05T03:22:27;100008.97;;;-2.58;66.18
65997;BME280;52765;52.258;21.052;2023-03-05T03:24:53;100014.72;;;-2.67;67.48
65997;BME280;52765;52.258;21.052;2023-03-05T03:27:18;100017.19;;;-2.64;67.87
65997;BME280;52765;52.258;21.052;2023-03-05T03:29:44;100010.56;;;-2.71;68.51
65997;BME280;52765;52.258;21.052;2023-03-05T03:32:09;100018.63;;;-2.74;68.59
65997;BME280;52765;52.258;21.052;2023-03-05T03:34:35;100015.09;;;-2.75;68.86
65997;BME280;52765;52.258;21.052;2023-03-05T03:37:01;100003.78;;;-2.77;69.48
65997;BME280;52765;52.258;21.052;2023-03-05T03:39:26;100005.00;;;-2.67;69.08
65997;BME280;52765;52.258;21.052;2023-03-05T03:41:52;100007.03;;;-2.72;69.48
65997;BME280;52765;52.258;21.052;2023-03-05T03:44:19;100015.91;;;-2.73;69.86
65997;BME280;52765;52.258;21.052;2023-03-05T03:46:46;100001.09;;;-2.75;69.75
65997;BME280;52765;52.258;21.052;2023-03-05T03:49:20;99988.28;;;-2.66;69.18
65997;BME280;52765;52.258;21.052;2023-03-05T03:51:47;99998.97;;;-2.69;68.93
65997;BME280;52765;52.258;21.052;2023-03-05T03:54:15;99988.81;;;-2.76;69.71
65997;BME280;52765;52.258;21.052;2023-03-05T03:56:42;99984.34;;;-2.74;69.68
65997;BME280;52765;52.258;21.052;2023-03-05T03:59:09;99982.31;;;-2.69;69.56
65997;BME280;52765;52.258;21.052;2023-03-05T04:01:35;99990.38;;;-2.72;69.46
65997;BME280;52765;52.258;21.052;2023-03-05T04:04:00;99989.19;;;-2.67;69.23
65997;BME280;52765;52.258;21.052;2023-03-05T04:06:26;99976.28;;;-2.71;69.98
65997;BME280;52765;52.258;21.052;2023-03-05T04:08:51;99983.00;;;-2.66;70.19
65997;BME280;52765;52.258;21.052;2023-03-05T04:11:17;99973.88;;;-2.60;70.26
65997;BME280;52765;52.258;21.052;2023-03-05T04:13:46;99955.63;;;-2.63;70.19
65997;BME280;52765;52.258;21.052;2023-03-05T04:16:12;99974.34;;;-2.52;69.64
65997;BME280;52765;52.258;21.052;2023-03-05T04:18:38;99965.50;;;-2.51;69.46
65997;BME280;52765;52.258;21.052;2023-03-05T04:21:04;99975.00;;;-2.48;68.67
65997;BME280;52765;52.258;21.052;2023-03-05T04:23:29;99966.41;;;-2.52;68.36
65997;BME280;52765;52.258;21.052;2023-03-05T04:25:55;99969.56;;;-2.61;69.63
65997;BME280;52765;52.258;21.052;2023-03-05T04:28:20;99961.75;;;-2.63;68.36
65997;BME280;52765;52.258;21.052;2023-03-05T04:30:46;99962.56;;;-2.62;68.60
65997;BME280;52765;52.258;21.052;2023-03-05T04:33:12;99958.66;;;-2.55;68.56
65997;BME280;52765;52.258;21.052;2023-03-05T04:35:37;99950.00;;;-2.57;68.46
65997;BME280;52765;52.258;21.052;2023-03-05T04:38:03;99959.47;;;-2.53;67.81
65997;BME280;52765;52.258;21.052;2023-03-05T04:40:28;99953.91;;;-2.48;67.98
65997;BME280;52765;52.258;21.052;2023-03-05T04:42:54;99938.75;;;-2.61;67.39
65997;BME280;52765;52.258;21.052;2023-03-05T04:45:19;99951.03;;;-2.59;68.15
65997;BME280;52765;52.258;21.052;2023-03-05T04:47:45;99951.50;;;-2.69;67.94
65997;BME280;52765;52.258;21.052;2023-03-05T04:50:10;99943.13;;;-2.59;67.66
65997;BME280;52765;52.258;21.052;2023-03-05T04:52:43;99950.66;;;-2.53;67.41
65997;BME280;52765;52.258;21.052;2023-03-05T04:55:10;99955.19;;;-2.55;67.30
65997;BME280;52765;52.258;21.052;2023-03-05T04:57:36;99938.09;;;-2.48;66.62
65997;BME280;52765;52.258;21.052;2023-03-05T05:00:04;99933.44;;;-2.43;66.59
65997;BME280;52765;52.258;21.052;2023-03-05T05:02:43;99927.81;;;-2.53;66.47
65997;BME280;52765;52.258;21.052;2023-03-05T05:05:11;99921.75;;;-2.55;67.89
65997;BME280;52765;52.258;21.052;2023-03-05T05:07:39;99919.38;;;-2.59;68.07
65997;BME280;52765;52.258;21.052;2023-03-05T05:10:05;99922.84;;;-2.59;67.45
65997;BME280;52765;52.258;21.052;2023-03-05T05:12:32;99911.97;;;-2.53;68.25
65997;BME280;52765;52.258;21.052;2023-03-05T05:14:58;99916.97;;;-2.48;67.68
65997;BME280;52765;52.258;21.052;2023-03-05T05:17:23;99918.63;;;-2.46;67.58
65997;BME280;52765;52.258;21.052;2023-03-05T05:19:49;99904.47;;;-2.61;68.53
65997;BME280;52765;52.258;21.052;2023-03-05T05:22:15;99909.44;;;-2.54;68.94
65997;BME280;52765;52.258;21.052;2023-03-05T05:24:40;99905.75;;;-2.52;68.59
65997;BME280;52765;52.258;21.052;2023-03-05T05:27:06;99905.75;;;-2.52;68.93
65997;BME280;52765;52.258;21.052;2023-03-05T05:29:32;99911.81;;;-2.50;68.94
65997;BME280;52765;52.258;21.052;2023-03-05T05:31:57;99904.84;;;-2.51;69.03
65997;BME280;52765;52.258;21.052;2023-03-05T05:34:22;99905.59;;;-2.49;68.86
65997;BME280;52765;52.258;21.052;2023-03-05T05:36:50;99913.25;;;-2.44;68.55
65997;BME280;52765;52.258;21.052;2023-03-05T05:39:16;99908.06;;;-2.46;68.20
65997;BME280;52765;52.258;21.052;2023-03-05T05:41:41;99915.81;;;-2.43;67.80
65997;BME280;52765;52.258;21.052;2023-03-05T05:44:07;99914.47;;;-2.50;69.35
65997;BME280;52765;52.258;21.052;2023-03-05T05:46:32;99906.63;;;-2.51;69.11
65997;BME280;52765;52.258;21.052;2023-03-05T05:48:57;99905.25;;;-2.58;69.19
65997;BME280;52765;52.258;21.052;2023-03-05T05:51:23;99911.63;;;-2.47;68.73
65997;BME280;52765;52.258;21.052;2023-03-05T05:53:49;99909.50;;;-2.40;68.36
65997;BME280;52765;52.258;21.052;2023-03-05T05:56:15;99913.94;;;-2.40;67.65
65997;BME280;52765;52.258;21.052;2023-03-05T05:58:43;99913.09;;;-2.41;68.22
65997;BME280;52765;52.258;21.052;2023-03-05T06:03:40;99906.59;;;-2.35;67.81
65997;BME280;52765;52.258;21.052;2023-03-05T06:06:08;99917.00;;;-2.32;67.62
65997;BME280;52765;52.258;21.052;2023-03-05T06:08:34;99909.66;;;-2.11;65.83
65997;BME280;52765;52.258;21.052;2023-03-05T06:10:59;99917.06;;;-2.02;64.89
65997;BME280;52765;52.258;21.052;2023-03-05T06:13:25;99911.44;;;-1.96;64.86
65997;BME280;52765;52.258;21.052;2023-03-05T06:15:58;99899.97;;;-1.80;64.22
65997;BME280;52765;52.258;21.052;2023-03-05T06:18:24;99890.31;;;-1.65;63.69
65997;BME280;52765;52.258;21.052;2023-03-05T06:20:57;99893.03;;;-1.67;63.37
65997;BME280;52765;52.258;21.052;2023-03-05T06:23:23;99888.28;;;-1.46;62.94
65997;BME280;52765;52.258;21.052;2023-03-05T06:25:49;99894.06;;;-1.39;61.57
65997;BME280;52765;52.258;21.052;2023-03-05T06:28:15;99884.81;;;-1.46;62.08
65997;BME280;52765;52.258;21.052;2023-03-05T06:30:41;99871.13;;;-1.39;61.81
65997;BME280;52765;52.258;21.052;2023-03-05T06:33:06;99862.25;;;-1.38;61.77
65997;BME280;52765;52.258;21.052;2023-03-05T06:35:32;99865.38;;;-1.31;61.50
65997;BME280;52765;52.258;21.052;2023-03-05T06:37:57;99855.09;;;-1.21;61.34
65997;BME280;52765;52.258;21.052;2023-03-05T06:40:23;99860.38;;;-1.21;61.11
65997;BME280;52765;52.258;21.052;2023-03-05T06:42:51;99864.34;;;-1.14;60.68
65997;BME280;52765;52.258;21.052;2023-03-05T06:45:17;99861.59;;;-1.13;60.26
65997;BME280;52765;52.258;21.052;2023-03-05T06:47:42;99869.44;;;-1.11;60.03
65997;BME280;52765;52.258;21.052;2023-03-05T06:50:08;99872.75;;;-1.07;60.10
65997;BME280;52765;52.258;21.052;2023-03-05T06:52:34;99857.63;;;-1.05;59.66
65997;BME280;52765;52.258;21.052;2023-03-05T06:54:59;99852.16;;;-1.02;59.73
65997;BME280;52765;52.258;21.052;2023-03-05T06:57:25;99839.69;;;-0.86;59.49
65997;BME280;52765;52.258;21.052;2023-03-05T06:59:50;99833.69;;;-0.75;58.76
65997;BME280;52765;52.258;21.052;2023-03-05T07:02:21;99819.81;;;-0.64;58.74
65997;BME280;52765;52.258;21.052;2023-03-05T07:04:47;99843.59;;;-0.50;58.11
65997;BME280;52765;52.258;21.052;2023-03-05T07:07:13;99840.63;;;-0.45;58.46
65997;BME280;52765;52.258;21.052;2023-03-05T07:09:38;99827.72;;;-0.50;58.10
65997;BME280;52765;52.258;21.052;2023-03-05T07:12:09;99822.00;;;-0.44;57.79
65997;BME280;52765;52.258;21.052;2023-03-05T07:14:36;99824.56;;;-0.42;58.44
65997;BME280;52765;52.258;21.052;2023-03-05T07:17:02;99821.63;;;-0.38;57.88
65997;BME280;52765;52.258;21.052;2023-03-05T07:19:27;99825.50;;;-0.16;57.30
65997;BME280;52765;52.258;21.052;2023-03-05T07:21:55;99821.78;;;-0.13;57.17
65997;BME280;52765;52.258;21.052;2023-03-05T07:24:21;99836.38;;;-0.21;57.25
65997;BME280;52765;52.258;21.052;2023-03-05T07:26:48;99839.88;;;-0.20;57.30
65997;BME280;52765;52.258;21.052;2023-03-05T07:29:14;99830.34;;;-0.23;57.49
65997;BME280;52765;52.258;21.052;2023-03-05T07:31:39;99840.53;;;-0.16;57.94
65997;BME280;52765;52.258;21.052;2023-03-05T07:34:05;99831.03;;;-0.06;57.35
65997;BME280;52765;52.258;21.052;2023-03-05T07:36:31;99826.44;;;-0.17;57.77
65997;BME280;52765;52.258;21.052;2023-03-05T07:38:59;99825.53;;;-0.03;57.51
65997;BME280;52765;52.258;21.052;2023-03-05T07:41:24;99836.69;;;0.15;57.10
65997;BME280;52765;52.258;21.052;2023-03-05T07:43:52;99825.06;;;0.17;57.29
65997;BME280;52765;52.258;21.052;2023-03-05T07:46:19;99822.97;;;0.35;56.97
65997;BME280;52765;52.258;21.052;2023-03-05T07:48:45;99813.63;;;0.43;55.91
65997;BME280;52765;52.258;21.052;2023-03-05T07:51:19;99826.34;;;0.38;56.39
65997;BME280;52765;52.258;21.052;2023-03-05T07:53:46;99845.19;;;0.33;57.04
65997;BME280;52765;52.258;21.052;2023-03-05T07:56:12;99827.69;;;0.17;57.78
65997;BME280;52765;52.258;21.052;2023-03-05T07:58:40;99829.84;;;0.25;57.71
65997;BME280;52765;52.258;21.052;2023-03-05T08:01:12;99836.75;;;0.41;57.61
65997;BME280;52765;52.258;21.052;2023-03-05T08:03:42;99821.38;;;0.46;57.55
65997;BME280;52765;52.258;21.052;2023-03-05T08:06:09;99831.84;;;0.34;58.56
65997;BME280;52765;52.258;21.052;2023-03-05T08:08:35;99829.09;;;0.36;58.34
65997;BME280;52765;52.258;21.052;2023-03-05T08:11:06;99825.81;;;0.32;59.26
65997;BME280;52765;52.258;21.052;2023-03-05T08:13:32;99831.53;;;0.39;59.48
65997;BME280;52765;52.258;21.052;2023-03-05T08:15:58;99816.47;;;0.40;59.55
65997;BME280;52765;52.258;21.052;2023-03-05T08:18:23;99818.94;;;0.43;59.46
65997;BME280;52765;52.258;21.052;2023-03-05T08:20:52;99822.75;;;0.39;59.71
65997;BME280;52765;52.258;21.052;2023-03-05T08:23:17;99827.84;;;0.29;60.45
65997;BME280;52765;52.258;21.052;2023-03-05T08:25:43;99823.38;;;0.29;61.19
65997;BME280;52765;52.258;21.052;2023-03-05T08:28:08;99823.28;;;0.31;60.80
65997;BME280;52765;52.258;21.052;2023-03-05T08:30:34;99827.72;;;0.30;60.98
65997;BME280;52765;52.258;21.052;2023-03-05T08:32:59;99825.69;;;0.21;61.45
65997;BME280;52765;52.258;21.052;2023-03-05T08:35:25;99818.81;;;0.18;61.69
65997;BME280;52765;52.258;21.052;2023-03-05T08:37:50;99821.88;;;0.12;61.98
65997;BME280;52765;52.258;21.052;2023-03-05T08:40:16;99817.50;;;0.11;62.09
65997;BME280;52765;52.258;21.052;2023-03-05T08:42:43;99822.28;;;0.06;62.37
65997;BME280;52765;52.258;21.052;2023-03-05T08:45:09;99817.94;;;0.05;62.96
65997;BME280;52765;52.258;21.052;2023-03-05T08:47:36;99822.41;;;0.17;63.05
65997;BME280;52765;52.258;21.052;2023-03-05T08:50:08;99827.09;;;0.27;62.38
65997;BME280;52765;52.258;21.052;2023-03-05T08:52:36;99820.28;;;0.23;62.76
65997;BME280;52765;52.258;21.052;2023-03-05T08:55:05;99813.06;;;0.25;62.43
65997;BME280;52765;52.258;21.052;2023-03-05T08:57:34;99819.66;;;0.19;62.90
65997;BME280;52765;52.258;21.052;2023-03-05T08:59:59;99813.19;;;0.10;62.97
65997;BME280;52765;52.258;21.052;2023-03-05T09:02:25;99816.78;;;0.09;63.75
65997;BME280;52765;52.258;21.052;2023-03-05T09:04:50;99819.31;;;0.11;63.56
65997;BME280;52765;52.258;21.052;2023-03-05T09:07:17;99822.19;;;0.21;63.79
65997;BME280;52765;52.258;21.052;2023-03-05T09:09:42;99812.25;;;0.37;63.56
65997;BME280;52765;52.258;21.052;2023-03-05T09:12:08;99823.81;;;0.49;62.94
65997;BME280;52765;52.258;21.052;2023-03-05T09:14:33;99819.25;;;0.64;62.40
65997;BME280;52765;52.258;21.052;2023-03-05T09:17:00;99816.50;;;0.65;62.19
65997;BME280;52765;52.258;21.052;2023-03-05T09:19:26;99816.72;;;0.62;62.17
65997;BME280;52765;52.258;21.052;2023-03-05T09:21:51;99812.16;;;0.39;62.49
65997;BME280;52765;52.258;21.052;2023-03-05T09:24:17;99825.19;;;0.29;63.11
65997;BME280;52765;52.258;21.052;2023-03-05T09:26:42;99803.13;;;0.28;62.64
65997;BME280;52765;52.258;21.052;2023-03-05T09:29:08;99809.09;;;0.32;63.12
65997;BME280;52765;52.258;21.052;2023-03-05T09:31:35;99820.41;;;0.34;63.43
65997;BME280;52765;52.258;21.052;2023-03-05T09:34:03;99815.66;;;0.39;63.15
65997;BME280;52765;52.258;21.052;2023-03-05T09:36:30;99819.13;;;0.40;63.32
65997;BME280;52765;52.258;21.052;2023-03-05T09:38:56;99813.41;;;0.33;63.59
65997;BME280;52765;52.258;21.052;2023-03-05T09:52:53;99808.81;;;0.99;63.14
65997;BME280;52765;52.258;21.052;2023-03-05T09:55:44;99808.47;;;1.17;61.85
65997;BME280;52765;52.258;21.052;2023-03-05T09:58:15;99812.22;;;1.01;62.00
65997;BME280;52765;52.258;21.052;2023-03-05T10:00:44;99800.97;;;0.85;62.36
65997;BME280;52765;52.258;21.052;2023-03-05T10:03:27;99804.81;;;0.94;62.39
65997;BME280;52765;52.258;21.052;2023-03-05T10:06:33;99808.81;;;0.99;62.67
65997;BME280;52765;52.258;21.052;2023-03-05T10:14:37;99803.72;;;0.96;63.43
65997;BME280;52765;52.258;21.052;2023-03-05T10:22:55;99790.66;;;1.06;64.16
65997;BME280;52765;52.258;21.052;2023-03-05T10:25:51;99794.63;;;1.00;63.60
65997;BME280;52765;52.258;21.052;2023-03-05T10:39:49;99787.94;;;0.95;64.58
65997;BME280;52765;52.258;21.052;2023-03-05T10:45:24;99781.69;;;0.96;65.86
65997;BME280;52765;52.258;21.052;2023-03-05T10:48:04;99784.53;;;0.92;66.48
65997;BME280;52765;52.258;21.052;2023-03-05T10:50:36;99775.88;;;0.78;67.60
65997;BME280;52765;52.258;21.052;2023-03-05T10:53:27;99777.00;;;0.86;67.17
65997;BME280;52765;52.258;21.052;2023-03-05T10:55:53;99779.41;;;0.65;69.15
65997;BME280;52765;52.258;21.052;2023-03-05T10:58:23;99774.31;;;0.62;69.69
65997;BME280;52765;52.258;21.052;2023-03-05T11:01:05;99754.44;;;0.68;69.66
65997;BME280;52765;52.258;21.052;2023-03-05T11:09:32;99749.66;;;0.86;70.80
65997;BME280;52765;52.258;21.052;2023-03-05T11:12:14;99754.63;;;1.03;70.19
65997;BME280;52765;52.258;21.052;2023-03-05T11:15:01;99756.41;;;1.03;70.20
65997;BME280;52765;52.258;21.052;2023-03-05T11:17:44;99756.00;;;0.96;69.66
65997;BME280;52765;52.258;21.052;2023-03-05T11:23:11;99756.06;;;0.45;70.17
65997;BME280;52765;52.258;21.052;2023-03-05T11:28:39;99737.72;;;0.42;72.16
65997;BME280;52765;52.258;21.052;2023-03-05T11:36:35;99738.81;;;0.52;74.53
65997;BME280;52765;52.258;21.052;2023-03-05T11:41:48;99736.34;;;0.62;74.97
65997;BME280;52765;52.258;21.052;2023-03-05T11:46:53;99729.97;;;0.64;77.28
65997;BME280;52765;52.258;21.052;2023-03-05T11:49:23;99736.19;;;0.76;77.68
65997;BME280;52765;52.258;21.052;2023-03-05T11:54:35;99721.69;;;0.69;78.86
65997;BME280;52765;52.258;21.052;2023-03-05T11:57:05;99707.25;;;0.73;80.42
65997;BME280;52765;52.258;21.052;2023-03-05T11:59:33;99717.94;;;0.84;80.63
65997;BME280;52765;52.258;21.052;2023-03-05T12:01:59;99709.56;;;0.90;80.92
65997;BME280;52765;52.258;21.052;2023-03-05T12:04:26;99705.19;;;0.89;82.01
65997;BME280;52765;52.258;21.052;2023-03-05T12:06:57;99711.31;;;1.03;83.96
65997;BME280;52765;52.258;21.052;2023-03-05T12:09:38;99703.75;;;1.09;83.87
65997;BME280;52765;52.258;21.052;2023-03-05T12:15:05;99707.22;;;0.86;85.96
65997;BME280;52765;52.258;21.052;2023-03-05T12:17:58;99702.88;;;0.85;85.24
65997;BME280;52765;52.258;21.052;2023-03-05T12:23:01;99692.47;;;0.45;88.43
65997;BME280;52765;52.258;21.052;2023-03-05T12:25:44;99698.63;;;0.45;89.06
65997;BME280;52765;52.258;21.052;2023-03-05T12:31:14;99692.88;;;0.51;90.40
65997;BME280;52765;52.258;21.052;2023-03-05T12:33:49;99697.97;;;0.42;91.27
65997;BME280;52765;52.258;21.052;2023-03-05T12:38:52;99695.38;;;-0.10;91.51
65997;BME280;52765;52.258;21.052;2023-03-05T12:46:32;99690.06;;;0.03;92.69
65997;BME280;52765;52.258;21.052;2023-03-05T12:49:26;99677.53;;;-0.21;95.21
65997;BME280;52765;52.258;21.052;2023-03-05T12:51:49;99677.22;;;0.10;93.37
65997;BME280;52765;52.258;21.052;2023-03-05T12:57:02;99688.78;;;0.34;93.45
65997;BME280;52765;52.258;21.052;2023-03-05T12:59:49;99670.63;;;0.41;92.65
65997;BME280;52765;52.258;21.052;2023-03-05T13:02:33;99666.06;;;0.56;92.25
65997;BME280;52765;52.258;21.052;2023-03-05T13:05:03;99665.56;;;0.38;90.72
65997;BME280;52765;52.258;21.052;2023-03-05T13:07:29;99666.53;;;0.37;90.58
65997;BME280;52765;52.258;21.052;2023-03-05T13:09:56;99671.31;;;0.32;92.36
65997;BME280;52765;52.258;21.052;2023-03-05T13:12:25;99670.41;;;0.44;91.34
65997;BME280;52765;52.258;21.052;2023-03-05T13:15:05;99663.63;;;0.53;91.27
65997;BME280;52765;52.258;21.052;2023-03-05T13:20:02;99661.25;;;0.61;91.01
65997;BME280;52765;52.258;21.052;2023-03-05T13:22:30;99659.09;;;0.79;90.69
65997;BME280;52765;52.258;21.052;2023-03-05T13:25:22;99662.41;;;0.70;89.07
65997;BME280;52765;52.258;21.052;2023-03-05T13:27:49;99650.97;;;0.57;88.11
65997;BME280;52765;52.258;21.052;2023-03-05T13:30:26;99656.28;;;0.57;87.66
65997;BME280;52765;52.258;21.052;2023-03-05T13:32:59;99640.38;;;0.57;87.23
65997;BME280;52765;52.258;21.052;2023-03-05T13:35:28;99649.75;;;0.49;86.91
65997;BME280;52765;52.258;21.052;2023-03-05T13:37:55;99657.06;;;0.33;87.82
65997;BME280;52765;52.258;21.052;2023-03-05T13:40:28;99652.66;;;0.33;88.68
65997;BME280;52765;52.258;21.052;2023-03-05T13:42:54;99645.66;;;0.32;86.86
65997;BME280;52765;52.258;21.052;2023-03-05T13:48:03;99642.75;;;0.48;86.82
65997;BME280;52765;52.258;21.052;2023-03-05T13:50:40;99638.59;;;0.57;87.55
65997;BME280;52765;52.258;21.052;2023-03-05T13:53:15;99640.63;;;0.78;87.27
65997;BME280;52765;52.258;21.052;2023-03-05T13:55:42;99635.97;;;0.81;85.14
65997;BME280;52765;52.258;21.052;2023-03-05T14:01:34;99632.25;;;0.84;85.66
65997;BME280;52765;52.258;21.052;2023-03-05T14:04:16;99619.94;;;0.83;85.65
65997;BME280;52765;52.258;21.052;2023-03-05T14:09:20;99621.94;;;0.92;85.03
65997;BME280;52765;52.258;21.052;2023-03-05T14:14:17;99612.97;;;0.82;85.83
65997;BME280;52765;52.258;21.052;2023-03-05T14:16:45;99621.13;;;0.79;86.79
65997;BME280;52765;52.258;21.052;2023-03-05T14:19:31;99616.50;;;0.69;87.28
65997;BME280;52765;52.258;21.052;2023-03-05T14:22:04;99612.44;;;0.77;87.45
65997;BME280;52765;52.258;21.052;2023-03-05T14:24:33;99619.97;;;0.70;86.84
65997;BME280;52765;52.258;21.052;2023-03-05T14:27:06;99626.81;;;0.61;87.08
65997;BME280;52765;52.258;21.052;2023-03-05T14:29:45;99607.03;;;0.41;89.21
65997;BME280;52765;52.258;21.052;2023-03-05T14:32:30;99609.59;;;0.43;88.87
65997;BME280;52765;52.258;21.052;2023-03-05T14:34:58;99614.56;;;0.47;89.65